createdAt,value
2024-04-17T00:00:25.648Z,99.99
2024-04-17T00:01:25.674Z,99.99
2024-04-17T00:02:25.608Z,99.99
2024-04-17T00:03:25.739Z,99.99
2024-04-17T00:04:25.693Z,99.99
2024-04-17T00:05:25.614Z,99.99
2024-04-17T00:06:25.572Z,99.99
2024-04-17T00:07:25.607Z,99.99
2024-04-17T00:08:25.586Z,99.99
2024-04-17T00:09:25.547Z,99.99
2024-04-17T00:10:25.552Z,99.99
2024-04-17T00:11:25.611Z,99.99
2024-04-17T00:12:25.525Z,99.99
2024-04-17T00:13:25.521Z,99.99
2024-04-17T00:14:25.486Z,99.99
2024-04-17T00:15:25.480Z,99.99
2024-04-17T00:16:25.495Z,99.99
2024-04-17T00:17:25.488Z,99.99
2024-04-17T00:18:25.478Z,99.99
2024-04-17T00:19:25.474Z,99.99
2024-04-17T00:20:25.453Z,99.99
2024-04-17T00:21:25.433Z,99.99
2024-04-17T00:22:25.467Z,99.99
2024-04-17T00:23:25.401Z,99.99
2024-04-17T00:24:25.387Z,99.99
2024-04-17T00:25:25.397Z,99.99
2024-04-17T00:26:25.381Z,99.99
2024-04-17T00:27:25.353Z,99.99
2024-04-17T00:28:25.358Z,99.99
2024-04-17T00:29:25.333Z,99.99
2024-04-17T00:30:25.322Z,99.99
2024-04-17T00:31:25.337Z,99.99
2024-04-17T00:32:25.324Z,99.99
2024-04-17T00:33:25.362Z,99.99
2024-04-17T00:34:25.298Z,99.99
2024-04-17T00:35:25.280Z,99.99
2024-04-17T00:36:25.276Z,99.99
2024-04-17T00:37:25.276Z,99.99
2024-04-17T00:38:25.246Z,99.99
2024-04-17T00:39:25.231Z,99.99
2024-04-17T00:40:25.287Z,99.99
2024-04-17T00:41:25.217Z,99.99
2024-04-17T00:42:25.201Z,99.99
2024-04-17T00:43:25.222Z,99.99
2024-04-17T00:44:25.182Z,99.99
2024-04-17T00:45:25.198Z,99.99
2024-04-17T00:46:25.164Z,99.99
2024-04-17T00:47:25.188Z,99.99
2024-04-17T00:48:25.153Z,99.99
2024-04-17T00:49:25.185Z,99.99
2024-04-17T00:50:25.137Z,99.99
2024-04-17T00:51:25.102Z,99.99
2024-04-17T00:52:25.139Z,99.99
2024-04-17T00:53:25.090Z,99.99
2024-04-17T00:54:25.096Z,99.99
2024-04-17T00:55:25.059Z,99.99
2024-04-17T00:56:25.065Z,99.99
2024-04-17T00:57:25.050Z,99.99
2024-04-17T00:58:25.055Z,99.99
2024-04-17T00:59:25.047Z,99.99
2024-04-17T01:00:25.017Z,99.99
2024-04-17T01:01:25.021Z,99.99
2024-04-17T01:02:25.004Z,99.99
2024-04-17T01:03:25.039Z,99.99
2024-04-17T01:04:25.027Z,99.99
2024-04-17T01:05:24.981Z,99.99
2024-04-17T01:06:24.976Z,99.99
2024-04-17T01:07:24.970Z,99.99
2024-04-17T01:08:24.964Z,99.99
2024-04-17T01:09:24.941Z,99.99
2024-04-17T01:10:24.940Z,99.99
2024-04-17T01:11:24.903Z,99.99
2024-04-17T01:12:24.903Z,99.99
2024-04-17T01:13:24.893Z,99.99
2024-04-17T01:14:24.871Z,99.99
2024-04-17T01:15:24.860Z,99.99
2024-04-17T01:16:24.880Z,99.99
2024-04-17T01:17:24.910Z,99.99
2024-04-17T01:18:24.896Z,99.99
2024-04-17T01:19:24.858Z,99.99
2024-04-17T01:20:24.819Z,99.99
2024-04-17T01:21:24.797Z,99.99
2024-04-17T01:22:24.824Z,99.99
2024-04-17T01:23:24.784Z,99.99
2024-04-17T01:24:24.777Z,99.99
2024-04-17T01:25:24.835Z,99.99
2024-04-17T01:26:24.750Z,99.99
2024-04-17T01:27:24.754Z,99.99
2024-04-17T01:28:24.765Z,99.99
2024-04-17T01:29:24.717Z,99.99
2024-04-17T01:30:24.714Z,99.99
2024-04-17T01:31:25.529Z,99.99
2024-04-17T01:32:24.751Z,99.99
2024-04-17T01:33:24.719Z,99.99
2024-04-17T01:34:24.687Z,99.99
2024-04-17T01:35:24.650Z,99.99
2024-04-17T01:36:24.672Z,99.99
2024-04-17T01:37:24.708Z,99.99
2024-04-17T01:38:24.641Z,99.99
2024-04-17T01:39:24.609Z,99.99
2024-04-17T01:40:24.637Z,99.99
2024-04-17T01:41:24.613Z,99.99
2024-04-17T01:42:24.587Z,99.99
2024-04-17T01:43:24.587Z,99.99
2024-04-17T01:44:29.871Z,99.99
2024-04-17T01:45:24.590Z,99.99
2024-04-17T01:46:24.643Z,99.99
2024-04-17T01:47:24.594Z,99.99
2024-04-17T01:48:24.567Z,99.99
2024-04-17T01:49:24.566Z,99.99
2024-04-17T01:50:24.565Z,99.99
2024-04-17T01:51:24.505Z,99.99
2024-04-17T01:52:24.515Z,99.99
2024-04-17T01:53:24.471Z,99.99
2024-04-17T01:54:24.463Z,99.99
2024-04-17T01:55:24.537Z,99.99
2024-04-17T01:56:24.447Z,99.99
2024-04-17T01:57:24.427Z,99.99
2024-04-17T01:58:24.460Z,99.99
2024-04-17T01:59:24.433Z,99.99
2024-04-17T02:00:24.415Z,99.99
2024-04-17T02:01:24.458Z,99.99
2024-04-17T02:02:24.384Z,99.99
2024-04-17T02:03:24.404Z,99.99
2024-04-17T02:04:24.407Z,99.99
2024-04-17T02:05:24.345Z,99.99
2024-04-17T02:06:24.333Z,99.99
2024-04-17T02:07:24.371Z,99.99
2024-04-17T02:08:24.334Z,99.99
2024-04-17T02:09:24.354Z,99.99
2024-04-17T02:10:24.319Z,99.99
2024-04-17T02:11:24.310Z,99.99
2024-04-17T02:12:24.277Z,99.99
2024-04-17T02:13:24.303Z,99.99
2024-04-17T02:14:24.266Z,99.99
2024-04-17T02:15:24.252Z,99.99
2024-04-17T02:16:24.304Z,99.99
2024-04-17T02:17:24.363Z,99.99
2024-04-17T02:18:24.294Z,99.99
2024-04-17T02:19:24.217Z,99.99
2024-04-17T02:20:24.196Z,99.99
2024-04-17T02:21:24.189Z,99.99
2024-04-17T02:22:24.192Z,99.99
2024-04-17T02:23:24.190Z,99.99
2024-04-17T02:24:24.157Z,99.99
2024-04-17T02:25:24.160Z,99.99
2024-04-17T02:26:24.131Z,99.99
2024-04-17T02:27:24.150Z,99.99
2024-04-17T02:28:24.139Z,99.99
2024-04-17T02:29:24.118Z,99.99
2024-04-17T02:30:24.108Z,99.99
2024-04-17T02:31:24.126Z,99.99
2024-04-17T02:32:24.123Z,99.99
2024-04-17T02:33:24.158Z,99.99
2024-04-17T02:34:24.080Z,99.99
2024-04-17T02:35:24.047Z,99.99
2024-04-17T02:36:24.037Z,99.99
2024-04-17T02:37:24.054Z,99.99
2024-04-17T02:38:24.004Z,99.99
2024-04-17T02:39:23.998Z,99.99
2024-04-17T02:40:24.053Z,99.99
2024-04-17T02:41:23.999Z,99.99
2024-04-17T02:42:23.982Z,99.99
2024-04-17T02:43:24.007Z,99.99
2024-04-17T02:44:23.948Z,99.99
2024-04-17T02:45:23.948Z,99.99
2024-04-17T02:46:23.986Z,99.99
2024-04-17T02:47:23.996Z,99.99
2024-04-17T02:48:23.996Z,99.99
2024-04-17T02:49:23.941Z,99.99
2024-04-17T02:50:23.890Z,99.99
2024-04-17T02:51:23.896Z,99.99
2024-04-17T02:52:23.868Z,99.99
2024-04-17T02:53:23.863Z,99.99
2024-04-17T02:54:23.844Z,99.99
2024-04-17T02:55:23.859Z,99.99
2024-04-17T02:56:23.838Z,99.99
2024-04-17T02:57:23.815Z,99.99
2024-04-17T02:58:23.820Z,99.99
2024-04-17T02:59:23.793Z,99.99
2024-04-17T03:00:23.810Z,99.99
2024-04-17T03:01:23.805Z,99.99
2024-04-17T03:02:23.777Z,99.99
2024-04-17T03:03:23.776Z,99.99
2024-04-17T03:04:23.921Z,99.99
2024-04-17T03:05:23.831Z,99.99
2024-04-17T03:06:23.728Z,99.99
2024-04-17T03:07:23.742Z,99.99
2024-04-17T03:08:23.707Z,99.99
2024-04-17T03:09:23.724Z,99.99
2024-04-17T03:10:23.710Z,99.99
2024-04-17T03:11:23.704Z,99.99
2024-04-17T03:12:23.655Z,99.99
2024-04-17T03:13:23.675Z,99.99
2024-04-17T03:14:23.660Z,99.99
2024-04-17T03:15:23.666Z,99.99
2024-04-17T03:16:23.670Z,99.99
2024-04-17T03:17:23.684Z,99.99
2024-04-17T03:18:23.614Z,99.99
2024-04-17T03:19:23.622Z,99.99
2024-04-17T03:20:23.610Z,99.99
2024-04-17T03:21:23.609Z,99.99
2024-04-17T03:22:23.660Z,99.99
2024-04-17T03:23:23.633Z,99.99
2024-04-17T03:24:23.568Z,99.99
2024-04-17T03:25:23.601Z,99.99
2024-04-17T03:26:23.516Z,99.99
2024-04-17T03:27:23.510Z,99.99
2024-04-17T03:28:23.591Z,99.99
2024-04-17T03:29:23.939Z,99.99
2024-04-17T03:30:23.475Z,99.99
2024-04-17T03:31:23.501Z,99.99
2024-04-17T03:32:23.535Z,99.99
2024-04-17T03:33:23.541Z,99.99
2024-04-17T03:34:23.493Z,99.99
2024-04-17T03:35:23.516Z,99.99
2024-04-17T03:36:23.471Z,99.99
2024-04-17T03:37:23.435Z,99.99
2024-04-17T03:38:23.448Z,99.99
2024-04-17T03:39:23.393Z,99.99
2024-04-17T03:40:23.467Z,99.99
2024-04-17T03:41:23.366Z,99.99
2024-04-17T03:42:23.871Z,99.99
2024-04-17T03:43:23.453Z,99.99
2024-04-17T03:44:23.327Z,99.99
2024-04-17T03:45:23.328Z,99.99
2024-04-17T03:46:23.367Z,99.99
2024-04-17T03:47:23.282Z,99.99
2024-04-17T03:48:23.315Z,99.99
2024-04-17T03:49:23.324Z,99.99
2024-04-17T03:50:23.266Z,99.99
2024-04-17T03:51:23.521Z,99.99
2024-04-17T03:52:23.235Z,99.99
2024-04-17T03:53:23.253Z,99.99
2024-04-17T03:54:23.224Z,99.99
2024-04-17T03:55:23.268Z,99.99
2024-04-17T03:56:23.233Z,99.99
2024-04-17T03:57:23.198Z,99.99
2024-04-17T03:58:23.220Z,99.99
2024-04-17T03:59:23.132Z,99.99
2024-04-17T04:00:23.107Z,99.99
2024-04-17T04:01:23.167Z,99.99
2024-04-17T04:02:23.101Z,99.99
2024-04-17T04:03:23.211Z,99.99
2024-04-17T04:04:23.135Z,99.99
2024-04-17T04:05:23.103Z,99.99
2024-04-17T04:06:23.071Z,99.99
2024-04-17T04:07:23.080Z,99.99
2024-04-17T04:08:23.033Z,99.99
2024-04-17T04:09:23.026Z,99.99
2024-04-17T04:10:23.048Z,99.99
2024-04-17T04:11:23.022Z,99.99
2024-04-17T04:12:22.986Z,99.99
2024-04-17T04:13:23.006Z,99.99
2024-04-17T04:14:22.972Z,99.99
2024-04-17T04:15:22.984Z,99.99
2024-04-17T04:16:22.991Z,99.99
2024-04-17T04:17:22.989Z,99.99
2024-04-17T04:18:23.125Z,99.99
2024-04-17T04:19:22.954Z,99.99
2024-04-17T04:20:22.925Z,99.99
2024-04-17T04:21:22.930Z,99.99
2024-04-17T04:22:22.896Z,99.99
2024-04-17T04:23:22.894Z,99.99
2024-04-17T04:24:22.903Z,99.99
2024-04-17T04:25:22.867Z,99.99
2024-04-17T04:26:22.852Z,99.99
2024-04-17T04:27:22.840Z,99.99
2024-04-17T04:28:22.842Z,99.99
2024-04-17T04:29:22.832Z,99.99
2024-04-17T04:30:23.986Z,99.99
2024-04-17T04:31:22.804Z,99.99
2024-04-17T04:32:22.795Z,99.99
2024-04-17T04:33:22.861Z,99.99
2024-04-17T04:34:22.812Z,99.99
2024-04-17T04:35:22.757Z,99.99
2024-04-17T04:36:22.756Z,99.99
2024-04-17T04:37:22.756Z,99.99
2024-04-17T04:38:22.760Z,99.99
2024-04-17T04:39:22.718Z,99.99
2024-04-17T04:40:25.136Z,99.99
2024-04-17T04:41:22.700Z,99.99
2024-04-17T04:42:22.682Z,99.99
2024-04-17T04:43:22.712Z,99.99
2024-04-17T04:44:22.673Z,99.99
2024-04-17T04:45:22.660Z,99.99
2024-04-17T04:46:22.651Z,99.99
2024-04-17T04:47:22.675Z,99.99
2024-04-17T04:48:22.663Z,99.99
2024-04-17T04:49:22.643Z,99.99
2024-04-17T04:50:22.597Z,99.99
2024-04-17T04:51:22.607Z,99.99
2024-04-17T04:52:22.616Z,99.99
2024-04-17T04:53:22.590Z,99.99
2024-04-17T04:54:22.553Z,99.99
2024-04-17T04:55:22.575Z,99.99
2024-04-17T04:56:22.539Z,99.99
2024-04-17T04:57:22.843Z,99.99
2024-04-17T04:58:22.554Z,99.99
2024-04-17T04:59:22.510Z,99.99
2024-04-17T05:00:22.513Z,99.99
2024-04-17T05:01:22.582Z,99.99
2024-04-17T05:02:22.541Z,99.99
2024-04-17T05:03:22.496Z,99.99
2024-04-17T05:04:22.577Z,99.99
2024-04-17T05:05:22.491Z,99.99
2024-04-17T05:06:22.459Z,99.99
2024-04-17T05:07:22.457Z,99.99
2024-04-17T05:08:22.414Z,99.99
2024-04-17T05:09:22.417Z,99.99
2024-04-17T05:10:22.452Z,99.99
2024-04-17T05:11:22.425Z,99.99
2024-04-17T05:12:22.427Z,99.99
2024-04-17T05:13:22.392Z,99.99
2024-04-17T05:14:22.357Z,99.99
2024-04-17T05:15:22.363Z,99.99
2024-04-17T05:16:22.363Z,99.99
2024-04-17T05:17:22.375Z,99.99
2024-04-17T05:18:22.408Z,99.99
2024-04-17T05:19:22.362Z,99.99
2024-04-17T05:20:22.315Z,99.99
2024-04-17T05:21:22.306Z,99.99
2024-04-17T05:22:22.312Z,99.99
2024-04-17T05:23:22.282Z,99.99
2024-04-17T05:24:22.254Z,99.99
2024-04-17T05:25:22.335Z,99.99
2024-04-17T05:26:22.248Z,99.99
2024-04-17T05:27:22.222Z,99.99
2024-04-17T05:28:22.324Z,99.99
2024-04-17T05:29:22.224Z,99.99
2024-04-17T05:30:22.210Z,99.99
2024-04-17T05:31:22.262Z,99.99
2024-04-17T05:32:22.191Z,99.99
2024-04-17T05:33:22.277Z,99.99
2024-04-17T05:34:22.500Z,99.99
2024-04-17T05:35:22.271Z,99.99
2024-04-17T05:36:22.140Z,99.99
2024-04-17T05:37:22.183Z,99.99
2024-04-17T05:38:22.108Z,99.99
2024-04-17T05:39:22.136Z,99.99
2024-04-17T05:40:22.085Z,99.99
2024-04-17T05:41:22.082Z,99.99
2024-04-17T05:42:22.056Z,99.99
2024-04-17T05:43:22.176Z,99.99
2024-04-17T05:44:22.142Z,99.99
2024-04-17T05:45:22.042Z,99.99
2024-04-17T05:46:22.085Z,99.99
2024-04-17T05:47:22.063Z,99.99
2024-04-17T05:48:22.184Z,99.99
2024-04-17T05:49:22.045Z,99.99
2024-04-17T05:50:22.054Z,99.99
2024-04-17T05:51:21.981Z,99.99
2024-04-17T05:52:21.983Z,99.99
2024-04-17T05:53:22.103Z,99.99
2024-04-17T05:54:21.942Z,99.99
2024-04-17T05:55:22.026Z,99.99
2024-04-17T05:56:21.937Z,99.99
2024-04-17T05:57:21.914Z,99.99
2024-04-17T05:58:21.933Z,99.99
2024-04-17T05:59:21.913Z,99.99
2024-04-17T06:00:21.937Z,99.99
2024-04-17T06:01:21.897Z,99.99
2024-04-17T06:02:21.909Z,99.99
2024-04-17T06:03:21.942Z,99.99
2024-04-17T06:04:21.877Z,99.99
2024-04-17T06:05:21.849Z,99.99
2024-04-17T06:06:21.819Z,99.99
2024-04-17T06:07:21.852Z,99.99
2024-04-17T06:08:21.799Z,99.99
2024-04-17T06:09:21.792Z,99.99
2024-04-17T06:10:21.782Z,99.99
2024-04-17T06:11:21.897Z,99.99
2024-04-17T06:12:22.012Z,99.99
2024-04-17T06:13:21.779Z,99.99
2024-04-17T06:14:21.741Z,99.99
2024-04-17T06:15:21.738Z,99.99
2024-04-17T06:16:22.394Z,99.99
2024-04-17T06:17:21.739Z,99.99
2024-04-17T06:18:21.719Z,99.99
2024-04-17T06:19:21.715Z,99.99
2024-04-17T06:20:21.686Z,99.99
2024-04-17T06:21:21.692Z,99.99
2024-04-17T06:22:22.085Z,99.99
2024-04-17T06:23:21.640Z,99.99
2024-04-17T06:24:21.630Z,99.99
2024-04-17T06:25:21.633Z,99.99
2024-04-17T06:26:21.646Z,99.99
2024-04-17T06:27:21.680Z,99.99
2024-04-17T06:28:21.891Z,99.99
2024-04-17T06:29:21.588Z,99.99
2024-04-17T06:30:21.603Z,99.99
2024-04-17T06:31:21.596Z,99.99
2024-04-17T06:32:21.650Z,99.99
2024-04-17T06:33:21.634Z,99.99
2024-04-17T06:34:21.549Z,99.99
2024-04-17T06:35:21.564Z,99.99
2024-04-17T06:36:21.539Z,99.99
2024-04-17T06:37:21.551Z,99.99
2024-04-17T06:38:21.511Z,99.99
2024-04-17T06:39:21.561Z,99.99
2024-04-17T06:40:21.599Z,99.99
2024-04-17T06:41:21.477Z,99.99
2024-04-17T06:42:21.451Z,99.99
2024-04-17T06:43:21.433Z,99.99
2024-04-17T06:44:21.463Z,99.99
2024-04-17T06:45:21.446Z,99.99
2024-04-17T06:46:21.413Z,99.99
2024-04-17T06:47:21.612Z,99.99
2024-04-17T06:48:23.415Z,99.99
2024-04-17T06:49:21.455Z,99.99
2024-04-17T06:50:21.364Z,99.99
2024-04-17T06:51:21.366Z,99.99
2024-04-17T06:52:21.352Z,99.99
2024-04-17T06:53:21.354Z,99.99
2024-04-17T06:54:22.166Z,99.99
2024-04-17T06:55:21.339Z,99.99
2024-04-17T06:56:21.321Z,99.99
2024-04-17T06:57:21.289Z,99.99
2024-04-17T06:58:21.469Z,99.99
2024-04-17T06:59:21.325Z,99.99
2024-04-17T07:00:21.274Z,99.99
2024-04-17T07:01:21.304Z,99.99
2024-04-17T07:02:21.311Z,99.99
2024-04-17T07:03:21.409Z,99.99
2024-04-17T07:04:21.235Z,99.99
2024-04-17T07:05:21.207Z,99.99
2024-04-17T07:06:21.203Z,99.99
2024-04-17T07:07:21.228Z,99.99
2024-04-17T07:08:21.217Z,99.99
2024-04-17T07:09:21.169Z,99.99
2024-04-17T07:10:21.209Z,99.99
2024-04-17T07:11:21.223Z,99.99
2024-04-17T07:12:21.224Z,99.99
2024-04-17T07:13:21.226Z,99.99
2024-04-17T07:14:21.131Z,99.99
2024-04-17T07:15:21.144Z,99.99
2024-04-17T07:16:21.106Z,99.99
2024-04-17T07:17:21.110Z,99.99
2024-04-17T07:18:21.153Z,99.99
2024-04-17T07:19:21.088Z,99.99
2024-04-17T07:20:21.117Z,99.99
2024-04-17T07:21:21.051Z,99.99
2024-04-17T07:22:21.078Z,99.99
2024-04-17T07:23:21.052Z,99.99
2024-04-17T07:24:21.032Z,99.99
2024-04-17T07:25:21.043Z,99.99
2024-04-17T07:26:21.214Z,99.99
2024-04-17T07:27:21.049Z,99.99
2024-04-17T07:28:21.001Z,99.99
2024-04-17T07:29:20.962Z,99.99
2024-04-17T07:30:20.968Z,99.99
2024-04-17T07:31:20.995Z,99.99
2024-04-17T07:32:21.085Z,99.99
2024-04-17T07:33:20.945Z,99.99
2024-04-17T07:34:20.923Z,99.99
2024-04-17T07:35:20.968Z,99.99
2024-04-17T07:36:20.917Z,99.99
2024-04-17T07:37:20.893Z,99.99
2024-04-17T07:38:20.878Z,99.99
2024-04-17T07:39:20.925Z,99.99
2024-04-17T07:40:20.895Z,99.99
2024-04-17T07:41:20.876Z,99.99
2024-04-17T07:42:20.840Z,99.99
2024-04-17T07:43:20.821Z,99.99
2024-04-17T07:44:20.821Z,99.99
2024-04-17T07:45:20.830Z,99.99
2024-04-17T07:46:20.830Z,99.99
2024-04-17T07:47:20.844Z,99.99
2024-04-17T07:48:20.935Z,99.99
2024-04-17T07:49:20.803Z,99.99
2024-04-17T07:50:20.778Z,99.99
2024-04-17T07:51:20.766Z,99.99
2024-04-17T07:52:20.758Z,99.99
2024-04-17T07:53:20.795Z,99.99
2024-04-17T07:54:20.748Z,99.99
2024-04-17T07:55:20.756Z,99.99
2024-04-17T07:56:20.696Z,99.99
2024-04-17T07:57:20.712Z,99.99
2024-04-17T07:58:20.680Z,99.99
2024-04-17T07:59:20.707Z,99.99
2024-04-17T08:00:21.511Z,99.99
2024-04-17T08:01:20.704Z,99.99
2024-04-17T08:02:20.646Z,99.99
2024-04-17T08:03:20.678Z,99.99
2024-04-17T08:04:20.728Z,99.99
2024-04-17T08:05:20.603Z,99.99
2024-04-17T08:06:20.595Z,99.99
2024-04-17T08:07:20.576Z,99.99
2024-04-17T08:08:20.619Z,98.41
2024-04-17T08:09:20.550Z,99.99
2024-04-17T08:10:20.555Z,99.99
2024-04-17T08:11:21.311Z,99.99
2024-04-17T08:12:20.564Z,99.99
2024-04-17T08:13:20.603Z,99.99
2024-04-17T08:14:20.558Z,99.99
2024-04-17T08:15:20.491Z,99.99
2024-04-17T08:16:20.485Z,97.36
2024-04-17T08:17:20.746Z,93.28
2024-04-17T08:18:20.557Z,94.21
2024-04-17T08:19:20.551Z,88.39
2024-04-17T08:20:20.590Z,92.78
2024-04-17T08:21:20.440Z,83.06
2024-04-17T08:22:20.703Z,78.09
2024-04-17T08:23:20.406Z,83.04
2024-04-17T08:24:20.412Z,82.46
2024-04-17T08:25:20.383Z,81.48
2024-04-17T08:26:20.384Z,87.38
2024-04-17T08:27:20.382Z,85.79
2024-04-17T08:28:20.417Z,85.22
2024-04-17T08:29:20.493Z,86.28
2024-04-17T08:30:20.347Z,86.24
2024-04-17T08:31:20.341Z,88.82
2024-04-17T08:32:20.394Z,80.27
2024-04-17T08:33:20.434Z,70.18
2024-04-17T08:34:20.295Z,69.43
2024-04-17T08:35:20.288Z,64.75
2024-04-17T08:36:20.395Z,63.61
2024-04-17T08:37:20.287Z,61.73
2024-04-17T08:38:20.333Z,58.72
2024-04-17T08:39:20.245Z,53.07
2024-04-17T08:40:20.234Z,51.73
2024-04-17T08:41:20.231Z,51.50
2024-04-17T08:42:20.226Z,54.82
2024-04-17T08:43:20.228Z,57.61
2024-04-17T08:44:20.226Z,63.53
2024-04-17T08:45:23.667Z,63.01
2024-04-17T08:46:20.190Z,61.56
2024-04-17T08:47:20.317Z,58.28
2024-04-17T08:48:20.263Z,50.59
2024-04-17T08:49:20.139Z,53.60
2024-04-17T08:50:20.161Z,52.26
2024-04-17T08:51:20.120Z,51.15
2024-04-17T08:52:20.113Z,54.71
2024-04-17T08:53:20.090Z,52.51
2024-04-17T08:54:20.082Z,47.33
2024-04-17T08:55:20.152Z,50.10
2024-04-17T08:56:20.084Z,48.09
2024-04-17T08:57:20.045Z,48.44
2024-04-17T08:58:20.064Z,48.43
2024-04-17T08:59:20.063Z,48.16
2024-04-17T09:00:20.484Z,47.00
2024-04-17T09:01:20.172Z,48.02
2024-04-17T09:02:20.051Z,45.71
2024-04-17T09:03:19.987Z,45.86
2024-04-17T09:04:20.083Z,47.85
2024-04-17T09:05:19.974Z,47.77
2024-04-17T09:06:19.989Z,48.47
2024-04-17T09:07:19.960Z,45.39
2024-04-17T09:08:19.993Z,46.01
2024-04-17T09:09:20.510Z,47.80
2024-04-17T09:10:20.034Z,44.64
2024-04-17T09:11:20.036Z,41.82
2024-04-17T09:12:19.902Z,40.55
2024-04-17T09:13:19.934Z,42.92
2024-04-17T09:14:19.887Z,43.32
2024-04-17T09:15:19.966Z,44.40
2024-04-17T09:16:19.862Z,45.49
2024-04-17T09:17:19.923Z,44.67
2024-04-17T09:18:20.017Z,45.53
2024-04-17T09:19:19.837Z,42.32
2024-04-17T09:20:19.806Z,44.92
2024-04-17T09:21:19.785Z,42.10
2024-04-17T09:22:19.830Z,40.69
2024-04-17T09:23:20.164Z,44.34
2024-04-17T09:24:19.781Z,45.06
2024-04-17T09:25:19.811Z,46.49
2024-04-17T09:26:19.768Z,43.74
2024-04-17T09:27:20.053Z,43.00
2024-04-17T09:28:19.767Z,45.70
2024-04-17T09:29:19.727Z,48.73
2024-04-17T09:30:19.729Z,48.47
2024-04-17T09:31:19.775Z,49.79
2024-04-17T09:32:19.791Z,48.30
2024-04-17T09:33:19.794Z,50.26
2024-04-17T09:34:19.672Z,47.25
2024-04-17T09:35:19.661Z,50.29
2024-04-17T09:36:19.645Z,53.90
2024-04-17T09:37:19.657Z,47.23
2024-04-17T09:38:19.632Z,51.32
2024-04-17T09:39:19.606Z,48.85
2024-04-17T09:40:19.616Z,47.34
2024-04-17T09:41:19.583Z,48.35
2024-04-17T09:42:19.592Z,46.03
2024-04-17T09:43:22.600Z,46.56
2024-04-17T09:44:19.565Z,44.46
2024-04-17T09:45:19.595Z,47.26
2024-04-17T09:46:19.589Z,47.51
2024-04-17T09:47:19.641Z,49.71
2024-04-17T09:48:19.518Z,48.02
2024-04-17T09:49:19.504Z,46.91
2024-04-17T09:50:19.581Z,48.62
2024-04-17T09:51:19.501Z,46.62
2024-04-17T09:52:19.507Z,46.26
2024-04-17T09:53:28.070Z,47.80
2024-04-17T09:54:19.475Z,51.39
2024-04-17T09:55:19.473Z,50.48
2024-04-17T09:56:19.476Z,50.20
2024-04-17T09:57:19.432Z,48.54
2024-04-17T09:58:19.456Z,49.83
2024-04-17T09:59:19.513Z,49.90
2024-04-17T10:00:19.512Z,45.65
2024-04-17T10:01:19.612Z,45.04
2024-04-17T10:02:19.478Z,46.22
2024-04-17T10:03:19.396Z,48.42
2024-04-17T10:04:20.311Z,45.25
2024-04-17T10:05:19.693Z,46.19
2024-04-17T10:06:19.337Z,42.66
2024-04-17T10:07:19.307Z,42.84
2024-04-17T10:08:19.376Z,41.42
2024-04-17T10:09:19.300Z,39.11
2024-04-17T10:10:19.316Z,41.73
2024-04-17T10:11:19.304Z,42.76
2024-04-17T10:12:19.268Z,43.40
2024-04-17T10:13:19.343Z,43.30
2024-04-17T10:14:19.283Z,39.96
2024-04-17T10:15:19.368Z,39.45
2024-04-17T10:16:19.276Z,42.38
2024-04-17T10:17:30.102Z,40.80
2024-04-17T10:18:19.462Z,42.19
2024-04-17T10:19:19.205Z,40.77
2024-04-17T10:20:19.202Z,43.95
2024-04-17T10:21:19.180Z,40.22
2024-04-17T10:22:19.164Z,42.54
2024-04-17T10:23:19.135Z,40.99
2024-04-17T10:24:19.170Z,42.76
2024-04-17T10:25:27.421Z,40.05
2024-04-17T10:26:19.206Z,37.04
2024-04-17T10:27:19.096Z,39.42
2024-04-17T10:28:19.139Z,40.02
2024-04-17T10:29:19.103Z,40.69
2024-04-17T10:30:19.088Z,38.22
2024-04-17T10:31:19.086Z,37.40
2024-04-17T10:32:19.082Z,36.80
2024-04-17T10:33:19.207Z,38.51
2024-04-17T10:34:19.163Z,43.54
2024-04-17T10:35:19.058Z,41.49
2024-04-17T10:36:19.020Z,39.38
2024-04-17T10:37:19.084Z,41.05
2024-04-17T10:38:28.762Z,42.99
2024-04-17T10:39:18.982Z,39.97
2024-04-17T10:40:18.981Z,37.12
2024-04-17T10:41:18.968Z,36.03
2024-04-17T10:42:19.081Z,36.57
2024-04-17T10:43:18.958Z,36.58
2024-04-17T10:44:19.031Z,39.00
2024-04-17T10:45:18.983Z,37.87
2024-04-17T10:46:18.932Z,39.66
2024-04-17T10:47:18.932Z,36.27
2024-04-17T10:48:19.074Z,38.62
2024-04-17T10:49:18.911Z,42.24
2024-04-17T10:50:18.944Z,42.32
2024-04-17T10:51:18.916Z,39.30
2024-04-17T10:52:18.863Z,37.87
2024-04-17T10:53:18.843Z,38.38
2024-04-17T10:54:18.825Z,40.48
2024-04-17T10:55:18.824Z,38.42
2024-04-17T10:56:19.105Z,37.37
2024-04-17T10:57:18.816Z,37.45
2024-04-17T10:58:18.788Z,37.73
2024-04-17T10:59:18.814Z,37.92
2024-04-17T11:00:18.764Z,36.13
2024-04-17T11:01:18.779Z,35.14
2024-04-17T11:02:18.780Z,38.75
2024-04-17T11:03:18.784Z,36.68
2024-04-17T11:04:18.891Z,40.53
2024-04-17T11:05:18.913Z,36.08
2024-04-17T11:06:18.709Z,37.48
2024-04-17T11:07:18.686Z,35.98
2024-04-17T11:08:18.692Z,36.35
2024-04-17T11:09:18.729Z,39.04
2024-04-17T11:10:18.656Z,44.34
2024-04-17T11:11:22.903Z,46.21
2024-04-17T11:12:18.657Z,47.17
2024-04-17T11:13:18.626Z,50.85
2024-04-17T11:14:18.605Z,50.92
2024-04-17T11:15:18.656Z,48.63
2024-04-17T11:16:18.958Z,47.88
2024-04-17T11:17:18.839Z,40.70
2024-04-17T11:18:18.663Z,40.30
2024-04-17T11:19:18.639Z,40.25
2024-04-17T11:20:18.611Z,40.91
2024-04-17T11:21:18.536Z,48.71
2024-04-17T11:22:18.532Z,53.78
2024-04-17T11:23:18.525Z,57.39
2024-04-17T11:24:18.516Z,58.92
2024-04-17T11:25:18.537Z,61.73
2024-04-17T11:26:18.494Z,64.31
2024-04-17T11:27:18.504Z,64.69
2024-04-17T11:28:18.461Z,61.13
2024-04-17T11:29:26.551Z,57.73
2024-04-17T11:30:18.471Z,56.05
2024-04-17T11:31:18.444Z,54.16
2024-04-17T11:32:18.951Z,53.98
2024-04-17T11:33:18.492Z,51.28
2024-04-17T11:34:20.629Z,51.76
2024-04-17T11:35:18.441Z,48.89
2024-04-17T11:36:18.378Z,48.18
2024-04-17T11:37:18.373Z,48.36
2024-04-17T11:38:18.355Z,48.64
2024-04-17T11:39:18.391Z,47.66
2024-04-17T11:40:18.705Z,47.58
2024-04-17T11:41:18.520Z,47.47
2024-04-17T11:42:18.306Z,48.69
2024-04-17T11:43:18.325Z,47.74
2024-04-17T11:44:18.318Z,46.98
2024-04-17T11:45:18.312Z,46.58
2024-04-17T11:46:18.297Z,45.12
2024-04-17T11:47:18.297Z,45.90
2024-04-17T11:48:18.304Z,44.97
2024-04-17T11:49:18.351Z,46.18
2024-04-17T11:50:18.224Z,47.00
2024-04-17T11:51:18.225Z,49.80
2024-04-17T11:52:18.221Z,46.36
2024-04-17T11:53:18.218Z,47.22
2024-04-17T11:54:18.207Z,44.81
2024-04-17T11:55:18.183Z,47.16
2024-04-17T11:56:18.166Z,49.31
2024-04-17T11:57:18.516Z,52.08
2024-04-17T11:58:18.172Z,55.32
2024-04-17T11:59:18.138Z,57.44
2024-04-17T12:00:18.119Z,53.38
2024-04-17T12:01:18.114Z,54.91
2024-04-17T12:02:18.330Z,52.89
2024-04-17T12:03:18.162Z,52.54
2024-04-17T12:04:18.202Z,50.80
2024-04-17T12:05:18.177Z,53.88
2024-04-17T12:06:18.064Z,49.87
2024-04-17T12:07:18.098Z,50.98
2024-04-17T12:08:18.046Z,51.91
2024-04-17T12:09:18.032Z,50.65
2024-04-17T12:10:18.030Z,53.07
2024-04-17T12:11:18.206Z,52.47
2024-04-17T12:12:18.081Z,52.51
2024-04-17T12:13:17.994Z,49.64
2024-04-17T12:14:17.969Z,50.04
2024-04-17T12:15:18.035Z,51.56
2024-04-17T12:16:18.014Z,51.73
2024-04-17T12:17:18.083Z,50.30
2024-04-17T12:18:17.992Z,49.09
2024-04-17T12:19:17.932Z,52.49
2024-04-17T12:20:17.910Z,48.86
2024-04-17T12:21:17.933Z,49.16
2024-04-17T12:22:17.892Z,53.88
2024-04-17T12:23:17.882Z,52.15
2024-04-17T12:24:17.888Z,54.90
2024-04-17T12:25:17.883Z,58.04
2024-04-17T12:26:17.868Z,59.96
2024-04-17T12:27:17.855Z,64.37
2024-04-17T12:28:17.829Z,61.78
2024-04-17T12:29:17.824Z,62.32
2024-04-17T12:30:17.826Z,65.41
2024-04-17T12:31:17.813Z,64.90
2024-04-17T12:32:17.799Z,64.69
2024-04-17T12:33:17.805Z,67.52
2024-04-17T12:34:17.765Z,68.71
2024-04-17T12:35:17.812Z,65.16
2024-04-17T12:36:17.745Z,59.89
2024-04-17T12:37:17.738Z,57.60
2024-04-17T12:38:17.713Z,57.91
2024-04-17T12:39:17.738Z,57.60
2024-04-17T12:40:18.103Z,58.34
2024-04-17T12:41:17.747Z,59.97
2024-04-17T12:42:17.678Z,58.59
2024-04-17T12:43:17.680Z,57.32
2024-04-17T12:44:17.672Z,55.55
2024-04-17T12:45:17.649Z,55.91
2024-04-17T12:46:18.845Z,59.05
2024-04-17T12:47:17.696Z,59.23
2024-04-17T12:48:17.956Z,57.46
2024-04-17T12:49:17.627Z,61.55
2024-04-17T12:50:17.598Z,62.29
2024-04-17T12:51:17.610Z,59.08
2024-04-17T12:52:17.570Z,60.33